Time;durP1;ratioP1;P1;durP2;ratioP2;P2;SDS_P1;SDS_P2;PMS_P1;PMS_P2;Temp;Humidity;BMP_temperature;BMP_pressure;BME280_temperature;BME280_humidity;BME280_pressure;Samples;Min_cycle;Max_cycle;Signal;HPM_P1;HPM_P2
2022/05/31 00:01:00;;;;;;;16.40;6.10;;;;;;;9.63;76.90;101291.25;5059678;28;20032;-64
2022/05/31 00:03:25;;;;;;;10.98;4.68;;;;;;;9.59;77.93;101295.28;5069823;28;20078;-64
2022/05/31 00:05:51;;;;;;;6.38;4.47;;;;;;;9.55;76.57;101294.00;5069458;28;20063;-64
2022/05/31 00:08:16;;;;;;;8.75;5.25;;;;;;;9.46;78.41;101273.78;5069538;28;20048;-65
2022/05/31 00:10:42;;;;;;;8.48;4.90;;;;;;;9.49;77.78;101284.06;5069553;28;20031;-64
2022/05/31 00:13:07;;;;;;;8.85;4.50;;;;;;;9.41;77.67;101276.16;5069258;28;20055;-64
2022/05/31 00:15:33;;;;;;;9.82;4.68;;;;;;;9.37;77.79;101278.31;5069436;28;20082;-64
2022/05/31 00:17:59;;;;;;;11.43;5.82;;;;;;;9.36;78.16;101276.66;5069501;28;20075;-64
2022/05/31 00:20:25;;;;;;;8.15;4.68;;;;;;;9.36;79.28;101281.16;5051234;28;20036;-65
2022/05/31 00:22:52;;;;;;;12.13;5.82;;;;;;;9.35;78.67;101277.69;5069348;28;20028;-65
2022/05/31 00:25:17;;;;;;;12.93;5.20;;;;;;;9.38;79.02;101277.31;5069105;28;20033;-65
2022/05/31 00:27:43;;;;;;;8.82;4.88;;;;;;;9.34;79.48;101276.00;5068442;28;20090;-65
2022/05/31 00:30:11;;;;;;;8.43;4.50;;;;;;;9.34;78.62;101275.19;5069148;28;20028;-65
2022/05/31 00:32:40;;;;;;;5.82;4.05;;;;;;;9.33;78.46;101278.88;5051217;28;20431;-65
2022/05/31 00:35:10;;;;;;;9.07;4.38;;;;;;;9.29;79.19;101270.38;5069109;28;20749;-65
2022/05/31 00:37:35;;;;;;;9.23;5.28;;;;;;;9.25;78.64;101268.25;5069112;28;20111;-65
2022/05/31 00:40:01;;;;;;;6.30;3.80;;;;;;;9.20;78.17;101274.13;5069132;28;20513;-64
2022/05/31 00:42:26;;;;;;;9.48;5.28;;;;;;;9.18;79.29;101270.81;5068771;28;20595;-64
2022/05/31 00:44:51;;;;;;;7.93;5.05;;;;;;;9.07;79.52;101258.75;5068789;28;20043;-65
2022/05/31 00:47:33;;;;;;;8.43;4.93;;;;;;;9.12;78.68;101276.84;5069049;28;20119;-65
2022/05/31 00:50:06;;;;;;;10.23;4.25;;;;;;;9.09;77.46;101274.53;5068909;28;20035;-64
2022/05/31 00:52:45;;;;;;;7.43;4.53;;;;;;;9.05;79.34;101268.72;5068792;28;20055;-64
2022/05/31 00:55:16;;;;;;;9.23;3.95;;;;;;;9.03;79.17;101273.41;5065923;28;20070;-65
2022/05/31 00:57:50;;;;;;;13.57;5.07;;;;;;;9.00;79.68;101276.41;5049595;28;20155;-64
2022/05/31 01:00:17;;;;;;;5.65;4.20;;;;;;;8.97;80.47;101282.09;5068976;28;20052;-64
2022/05/31 01:02:45;;;;;;;7.35;4.60;;;;;;;8.94;80.50;101272.63;5068915;28;20024;-65
2022/05/31 01:05:12;;;;;;;6.40;4.22;;;;;;;8.89;80.25;101272.31;5068757;28;20036;-64
2022/05/31 01:07:38;;;;;;;8.95;5.00;;;;;;;8.84;80.87;101271.19;5068674;28;20032;-64
2022/05/31 01:10:06;;;;;;;9.18;4.65;;;;;;;8.81;80.56;101269.72;5068239;28;20472;-64
2022/05/31 01:12:32;;;;;;;8.25;4.82;;;;;;;8.78;80.20;101278.88;5068660;28;20051;-65
2022/05/31 01:14:59;;;;;;;7.70;4.68;;;;;;;8.77;81.47;101273.72;5068744;28;20036;-64
2022/05/31 01:17:24;;;;;;;7.90;4.50;;;;;;;8.74;81.30;101269.56;5068713;28;20031;-64
2022/05/31 01:19:59;;;;;;;14.10;5.72;;;;;;;8.69;82.09;101265.78;5068571;28;20033;-65
2022/05/31 01:22:44;;;;;;;10.77;4.25;;;;;;;8.69;81.46;101271.91;5068285;28;20422;-64
2022/05/31 01:25:22;;;;;;;9.98;4.78;;;;;;;8.69;82.20;101268.44;5048194;28;20084;-64
2022/05/31 01:28:16;;;;;;;9.63;4.82;;;;;;;8.66;81.94;101272.28;5049511;28;20029;-64
2022/05/31 01:30:46;;;;;;;11.30;5.20;;;;;;;8.65;81.42;101261.81;5049065;28;20036;-65
2022/05/31 01:33:39;;;;;;;8.50;5.03;;;;;;;8.64;82.35;101266.28;5049479;28;20029;-65
2022/05/31 01:36:09;;;;;;;7.00;4.10;;;;;;;8.62;81.08;101263.00;5049504;28;20056;-64
2022/05/31 01:39:05;;;;;;;10.60;5.07;;;;;;;8.61;81.32;101261.31;5051929;28;20033;-64
2022/05/31 01:41:36;;;;;;;6.68;4.55;;;;;;;8.56;81.76;101263.69;5045061;28;20048;-64
2022/05/31 01:44:05;;;;;;;;;;;;;;;8.56;79.84;101261.03;5054185;28;20068;-64
2022/05/31 01:46:34;;;;;;;10.80;4.15;;;;;;;8.44;82.08;101251.78;5052977;28;19913;-64
2022/05/31 01:49:03;;;;;;;5.78;3.88;;;;;;;8.42;82.91;101253.78;5052868;28;20017;-64
2022/05/31 01:51:29;;;;;;;8.00;4.53;;;;;;;8.38;82.89;101253.25;5052616;28;20992;-64
2022/05/31 01:53:57;;;;;;;7.97;4.35;;;;;;;8.35;83.47;101250.94;5052889;28;20033;-64
2022/05/31 01:56:23;;;;;;;10.10;5.03;;;;;;;8.34;84.19;101243.97;5071936;28;20665;-64
2022/05/31 01:58:50;;;;;;;8.10;4.88;;;;;;;8.33;84.87;101256.44;5071849;28;20139;-64
2022/05/31 02:01:16;;;;;;;8.73;4.78;;;;;;;8.30;84.73;101255.94;5071988;28;20402;-65
2022/05/31 02:03:44;;;;;;;9.38;4.90;;;;;;;8.33;84.89;101255.59;5071983;28;20020;-64
2022/05/31 02:06:37;;;;;;;8.88;5.35;;;;;;;8.32;84.63;101253.94;5071778;28;20025;-64
2022/05/31 02:09:05;;;;;;;8.57;4.90;;;;;;;8.27;84.08;101248.31;5067913;28;20086;-65
2022/05/31 02:11:31;;;;;;;13.80;6.00;;;;;;;8.27;84.43;101253.63;5071819;28;20501;-64
2022/05/31 02:14:00;;;;;;;9.30;5.15;;;;;;;8.28;84.40;101260.63;5071854;28;20391;-65
2022/05/31 02:16:27;;;;;;;12.77;6.22;;;;;;;8.27;83.43;101258.94;5071635;28;20042;-64
2022/05/31 02:21:37;;;;;;;10.25;4.78;;;;;;;8.27;84.22;101254.47;5052212;28;20484;-65
2022/05/31 02:24:09;;;;;;;11.40;5.72;;;;;;;8.27;84.40;101253.63;5052478;28;20029;-65
2022/05/31 02:26:34;;;;;;;11.00;6.20;;;;;;;8.27;84.17;101257.13;5068699;28;20055;-64
2022/05/31 02:29:00;;;;;;;9.90;5.55;;;;;;;8.25;83.89;101253.81;5071502;28;20050;-64
2022/05/31 02:31:26;;;;;;;11.23;6.45;;;;;;;8.25;84.02;101250.31;5071409;28;20074;-64
2022/05/31 02:33:52;;;;;;;12.48;5.53;;;;;;;8.24;84.39;101251.31;5071450;28;20124;-64
2022/05/31 02:36:18;;;;;;;14.80;6.82;;;;;;;8.20;83.88;101252.66;5055268;28;20123;-64
2022/05/31 02:38:43;;;;;;;11.32;6.90;;;;;;;8.17;84.72;101243.19;5071395;28;20025;-64
2022/05/31 02:41:08;;;;;;;13.38;7.82;;;;;;;8.12;84.01;101243.72;5071308;28;20499;-64
2022/05/31 02:43:34;;;;;;;8.90;6.15;;;;;;;8.12;85.18;101242.88;5071259;28;20075;-64
2022/05/31 02:46:00;;;;;;;9.45;6.15;;;;;;;8.13;84.91;101247.22;5070966;28;20361;-64
2022/05/31 02:48:26;;;;;;;12.90;5.78;;;;;;;8.14;85.58;101238.22;5070964;28;20024;-64
2022/05/31 02:50:51;;;;;;;12.98;7.35;;;;;;;8.16;85.87;101236.25;5070385;28;20036;-64
2022/05/31 02:53:17;;;;;;;12.55;5.95;;;;;;;8.19;85.84;101233.22;5071048;28;20056;-64
2022/05/31 02:55:44;;;;;;;11.25;7.05;;;;;;;8.23;86.02;101233.75;5070814;28;20103;-64
2022/05/31 02:58:09;;;;;;;11.15;6.75;;;;;;;8.21;85.99;101222.44;5070985;28;20060;-64
2022/05/31 03:00:35;;;;;;;21.17;10.23;;;;;;;8.29;85.13;101233.88;5070843;28;20119;-65
2022/05/31 03:03:00;;;;;;;16.15;7.18;;;;;;;8.27;84.02;101227.88;5070853;28;20383;-64
2022/05/31 03:05:25;;;;;;;15.27;7.88;;;;;;;8.38;83.75;101236.47;5070956;28;20059;-65
2022/05/31 03:07:51;;;;;;;14.77;7.95;;;;;;;8.44;83.74;101239.31;5071022;28;20039;-64
2022/05/31 03:10:16;;;;;;;12.15;6.88;;;;;;;8.49;83.93;101230.84;5053025;28;20384;-65
2022/05/31 03:12:42;;;;;;;15.13;7.85;;;;;;;8.55;83.93;101238.94;5070665;28;20032;-64
2022/05/31 03:15:12;;;;;;;17.50;7.25;;;;;;;8.57;84.09;101230.78;5070111;28;20033;-64
2022/05/31 03:17:40;;;;;;;14.43;6.90;;;;;;;8.62;84.16;101228.44;5070227;28;20028;-65
2022/05/31 03:20:13;;;;;;;12.35;6.28;;;;;;;8.61;84.42;101226.75;5070640;28;20020;-65
2022/05/31 03:22:47;;;;;;;11.82;6.60;;;;;;;8.66;84.26;101231.56;5070522;28;20028;-64
2022/05/31 03:25:21;;;;;;;13.20;6.32;;;;;;;8.63;84.16;101215.97;5070616;28;20032;-65
2022/05/31 03:27:47;;;;;;;12.95;7.43;;;;;;;8.69;84.47;101223.22;5070519;28;20033;-64
2022/05/31 03:30:14;;;;;;;11.85;5.97;;;;;;;8.71;83.76;101230.03;5050908;28;20618;-64
2022/05/31 03:32:40;;;;;;;11.73;6.32;;;;;;;8.74;83.30;101228.84;5051226;28;20029;-65
2022/05/31 03:35:07;;;;;;;11.13;6.18;;;;;;;8.76;83.84;101229.53;5051252;28;20029;-64
2022/05/31 03:37:33;;;;;;;13.85;5.68;;;;;;;8.77;83.54;101225.84;5051045;28;20064;-64
2022/05/31 03:39:58;;;;;;;10.75;6.10;;;;;;;8.78;83.74;101225.69;5051093;28;20736;-65
2022/05/31 03:42:24;;;;;;;10.77;5.72;;;;;;;8.80;84.46;101228.16;5063641;28;20024;-64
2022/05/31 03:44:51;;;;;;;11.50;6.32;;;;;;;8.82;84.24;101225.31;5069925;28;20419;-64
2022/05/31 03:47:17;;;;;;;11.63;6.32;;;;;;;8.81;83.21;101221.03;5069799;28;20571;-65
2022/05/31 03:49:42;;;;;;;13.52;5.55;;;;;;;8.87;83.30;101231.75;5069459;28;20052;-65
2022/05/31 03:52:08;;;;;;;10.63;5.97;;;;;;;8.86;83.48;101231.97;5069786;28;20088;-64
2022/05/31 03:54:36;;;;;;;12.50;5.75;;;;;;;8.88;84.39;101224.59;5069439;28;20039;-64
2022/05/31 03:57:02;;;;;;;9.70;5.80;;;;;;;8.84;83.77;101220.66;5069782;28;20638;-64
2022/05/31 03:59:29;;;;;;;8.80;5.85;;;;;;;8.89;83.58;101228.94;5069872;28;20066;-64
2022/05/31 04:01:54;;;;;;;12.10;6.20;;;;;;;8.89;84.21;101226.28;5069693;28;20120;-64
2022/05/31 04:04:20;;;;;;;9.98;6.10;;;;;;;8.90;83.76;101225.25;5069555;28;20139;-64
2022/05/31 04:06:46;;;;;;;10.40;6.57;;;;;;;8.92;83.65;101229.41;5069768;28;20440;-64
2022/05/31 04:09:11;;;;;;;11.30;6.45;;;;;;;8.92;83.20;101225.94;5069491;28;20028;-65
2022/05/31 04:11:37;;;;;;;8.98;5.50;;;;;;;8.97;82.55;101226.22;5069543;28;20036;-64
2022/05/31 04:14:02;;;;;;;10.25;5.50;;;;;;;8.96;82.32;101230.72;5069425;28;20035;-64
2022/05/31 04:16:28;;;;;;;11.05;6.18;;;;;;;8.97;83.29;101220.91;5069466;28;20515;-65
2022/05/31 04:18:53;;;;;;;12.88;7.47;;;;;;;8.97;83.14;101221.72;5069281;28;20032;-64
2022/05/31 04:21:19;;;;;;;13.55;7.47;;;;;;;8.98;83.14;101223.38;5069231;28;20028;-64
2022/05/31 04:23:58;;;;;;;10.32;6.35;;;;;;;9.02;82.61;101229.19;5069339;28;20032;-64
2022/05/31 04:26:32;;;;;;;10.52;6.30;;;;;;;9.03;82.69;101217.53;5069260;28;20033;-64
2022/05/31 04:28:58;;;;;;;14.85;6.47;;;;;;;9.05;82.50;101223.50;5069263;28;20209;-64
2022/05/31 04:31:24;;;;;;;13.70;6.95;;;;;;;9.07;82.74;101223.34;5069205;28;20107;-64
2022/05/31 04:33:49;;;;;;;12.85;6.85;;;;;;;9.10;83.17;101223.81;5069181;28;20388;-64
2022/05/31 04:36:18;;;;;;;10.80;7.15;;;;;;;9.14;83.10;101221.59;5068956;28;20151;-64
2022/05/31 04:38:44;;;;;;;13.60;6.65;;;;;;;9.16;82.54;101222.25;5069195;28;20101;-64
2022/05/31 04:41:22;;;;;;;11.68;6.25;;;;;;;9.18;83.15;101230.91;5069050;28;20563;-65
2022/05/31 04:43:47;;;;;;;11.55;6.40;;;;;;;9.23;83.30;101227.72;5068945;28;20112;-65
2022/05/31 04:46:16;;;;;;;13.93;7.32;;;;;;;9.25;83.02;101226.53;5050914;28;20578;-64
2022/05/31 04:48:41;;;;;;;13.18;6.80;;;;;;;9.29;82.96;101229.66;5068430;28;20111;-64
2022/05/31 04:51:07;;;;;;;12.48;7.32;;;;;;;9.32;83.19;101231.94;5068522;28;20243;-64
2022/05/31 04:53:32;;;;;;;13.95;7.07;;;;;;;9.34;83.21;101224.63;5068967;28;20559;-64
2022/05/31 04:56:07;;;;;;;16.02;7.95;;;;;;;9.37;83.45;101234.91;5068741;28;20028;-65
2022/05/31 04:58:32;;;;;;;13.07;6.80;;;;;;;9.40;83.70;101224.72;5068813;28;20060;-64
2022/05/31 05:01:01;;;;;;;15.15;8.98;;;;;;;9.34;83.21;101214.78;5050669;28;20119;-64
2022/05/31 05:03:27;;;;;;;11.48;7.38;;;;;;;9.35;83.14;101212.94;5068827;28;20024;-64
2022/05/31 05:05:52;;;;;;;16.30;7.50;;;;;;;9.41;83.37;101221.06;5068712;28;20126;-64
2022/05/31 05:08:18;;;;;;;13.00;7.68;;;;;;;9.32;83.50;101202.66;5068807;28;20043;-64
2022/05/31 05:10:45;;;;;;;11.30;6.85;;;;;;;9.46;84.27;101223.19;5068858;28;20115;-65
2022/05/31 05:13:10;;;;;;;12.02;6.82;;;;;;;9.51;83.66;101214.63;5048825;28;20033;-65
2022/05/31 05:15:40;;;;;;;27.45;7.32;;;;;;;9.54;83.55;101219.63;5049510;28;20055;-65
2022/05/31 05:18:06;;;;;;;14.55;8.60;;;;;;;9.58;83.30;101221.72;5049448;28;20037;-65
2022/05/31 05:20:35;;;;;;;16.65;7.78;;;;;;;9.63;82.92;101215.88;5049409;28;20033;-64
2022/05/31 05:23:03;;;;;;;21.00;9.30;;;;;;;9.69;83.59;101216.97;5049189;28;20036;-64
2022/05/31 05:25:28;;;;;;;19.08;8.65;;;;;;;9.73;83.17;101207.63;5049402;28;20025;-65
2022/05/31 05:27:54;;;;;;;16.40;9.75;;;;;;;9.76;82.69;101215.25;5049191;28;20025;-65
2022/05/31 05:33:03;;;;;;;16.23;8.65;;;;;;;9.77;81.64;101217.72;5068766;28;20064;-64
2022/05/31 05:35:28;;;;;;;15.43;8.45;;;;;;;9.79;81.86;101206.88;5068469;28;20468;-65
2022/05/31 05:37:54;;;;;;;16.58;8.95;;;;;;;9.81;82.56;101205.69;5068435;28;20040;-65
2022/05/31 05:40:19;;;;;;;19.27;9.45;;;;;;;9.87;81.94;101209.44;5068512;28;20028;-64
2022/05/31 05:42:44;;;;;;;17.33;8.70;;;;;;;9.92;82.40;101206.25;5068142;28;20038;-64
2022/05/31 05:45:10;;;;;;;17.02;8.63;;;;;;;9.96;82.29;101215.53;5068359;28;20032;-65
2022/05/31 05:47:36;;;;;;;15.30;9.40;;;;;;;10.01;82.10;101211.31;5068291;28;20037;-65
2022/05/31 05:50:02;;;;;;;16.60;8.63;;;;;;;10.03;81.35;101211.09;5068370;28;20031;-65
2022/05/31 05:52:29;;;;;;;15.38;9.10;;;;;;;10.01;81.82;101202.50;5067842;28;20064;-65
2022/05/31 05:54:54;;;;;;;16.45;8.30;;;;;;;10.10;81.75;101212.84;5067926;28;20126;-64
2022/05/31 05:57:19;;;;;;;15.48;8.90;;;;;;;10.13;81.73;101214.31;5067952;28;20075;-65
2022/05/31 05:59:45;;;;;;;15.02;8.93;;;;;;;10.13;81.67;101216.16;5068128;28;20043;-65
2022/05/31 06:02:18;;;;;;;18.35;9.77;;;;;;;10.10;81.99;101210.19;5068455;28;20029;-65
2022/05/31 06:04:59;;;;;;;16.38;8.48;;;;;;;10.12;81.11;101218.00;5068175;28;20028;-65
2022/05/31 06:07:31;;;;;;;17.40;8.93;;;;;;;10.13;81.67;101216.16;5068018;28;20082;-64
2022/05/31 06:10:08;;;;;;;15.43;8.07;;;;;;;10.11;81.63;101216.34;5068097;28;20034;-65
2022/05/31 06:12:40;;;;;;;16.92;9.30;;;;;;;10.16;81.95;101208.63;5068018;28;20266;-65
2022/05/31 06:15:11;;;;;;;16.40;8.60;;;;;;;10.18;81.72;101211.13;5068160;28;20102;-65
2022/05/31 06:17:41;;;;;;;14.38;8.77;;;;;;;10.20;81.86;101217.09;5067932;28;20032;-65
2022/05/31 06:20:08;;;;;;;17.90;9.07;;;;;;;10.19;81.14;101212.75;5068030;28;20111;-65
2022/05/31 06:22:37;;;;;;;16.65;8.60;;;;;;;10.16;81.23;101208.63;5067961;28;20060;-65
2022/05/31 06:25:03;;;;;;;15.27;9.05;;;;;;;10.15;81.31;101203.50;5069519;28;20030;-65
2022/05/31 06:27:29;;;;;;;18.10;9.35;;;;;;;10.23;81.24;101201.53;5071460;28;20040;-64
2022/05/31 06:29:54;;;;;;;16.77;8.43;;;;;;;10.25;81.08;101212.03;5071558;28;20032;-65
2022/05/31 06:32:20;;;;;;;18.30;10.35;;;;;;;10.29;81.37;101211.47;5071323;28;20024;-65
2022/05/31 06:34:46;;;;;;;18.42;8.88;;;;;;;10.36;81.77;101216.91;5071192;28;20043;-65
2022/05/31 06:37:14;;;;;;;17.80;9.90;;;;;;;10.44;81.36;101216.81;5052100;28;20480;-65
2022/05/31 06:39:43;;;;;;;15.20;8.73;;;;;;;10.55;82.16;101212.00;5052079;28;20112;-65
2022/05/31 06:42:10;;;;;;;17.92;9.88;;;;;;;10.64;81.77;101219.72;5052241;28;20503;-64
2022/05/31 06:44:38;;;;;;;16.17;8.55;;;;;;;10.68;81.29;101209.47;5051983;28;20413;-65
2022/05/31 06:47:04;;;;;;;17.10;8.68;;;;;;;10.84;81.18;101211.09;5052176;28;20017;-65
2022/05/31 06:49:33;;;;;;;17.85;10.10;;;;;;;10.92;80.98;101209.13;5051782;28;20029;-65
2022/05/31 06:57:33;;;;;;;25.10;10.23;;;;;;;11.38;80.08;101214.06;5051770;28;20605;-65
2022/05/31 06:59:58;;;;;;;17.30;9.05;;;;;;;11.47;80.42;101206.72;5051659;28;20119;-64
2022/05/31 07:02:25;;;;;;;16.58;9.00;;;;;;;11.54;80.73;101199.59;5055766;28;20099;-65
2022/05/31 07:04:51;;;;;;;17.17;9.32;;;;;;;11.65;79.57;101213.44;5058486;28;20048;-65
2022/05/31 07:07:16;;;;;;;14.48;8.18;;;;;;;11.62;78.03;101196.78;5059056;28;20029;-65
2022/05/31 07:09:41;;;;;;;15.95;8.35;;;;;;;11.71;77.53;101205.50;5058263;28;20166;-65
2022/05/31 07:12:07;;;;;;;13.57;7.30;;;;;;;11.72;77.63;101207.13;5058733;28;20052;-65
2022/05/31 07:14:32;;;;;;;14.00;6.57;;;;;;;11.72;76.82;101215.16;5028764;28;20127;-65
2022/05/31 07:16:58;;;;;;;14.25;5.85;;;;;;;11.78;76.57;101211.69;5057719;28;20044;-65
2022/05/31 07:19:23;;;;;;;9.05;5.68;;;;;;;11.83;76.07;101205.75;5058185;28;20044;-65
2022/05/31 07:21:49;;;;;;;12.35;6.38;;;;;;;11.94;75.40;101204.41;5062653;28;20030;-65
2022/05/31 07:24:14;;;;;;;13.00;7.85;;;;;;;12.02;74.70;101207.75;5070512;28;20029;-69
2022/05/31 07:26:40;;;;;;;13.40;6.00;;;;;;;12.08;74.81;101206.16;5070350;28;20040;-69
2022/05/31 07:29:06;;;;;;;10.25;6.07;;;;;;;12.23;74.35;101200.66;5070327;28;20059;-69
2022/05/31 07:31:31;;;;;;;13.07;6.38;;;;;;;12.47;74.51;101201.97;5070335;28;20020;-69
2022/05/31 07:33:59;;;;;;;10.75;6.10;;;;;;;12.65;73.28;101196.06;5070060;28;20075;-71
2022/05/31 07:36:25;;;;;;;14.77;7.78;;;;;;;12.85;72.13;101201.47;5069730;28;20028;-69
2022/05/31 07:38:50;;;;;;;13.52;5.97;;;;;;;13.03;69.72;101215.09;5055132;28;20082;-69
2022/05/31 07:41:15;;;;;;;12.18;5.53;;;;;;;13.19;68.90;101211.19;5050860;28;20032;-70
2022/05/31 07:43:41;;;;;;;10.90;5.72;;;;;;;13.33;69.22;101202.16;5050346;28;20029;-69
2022/05/31 07:46:10;;;;;;;12.63;5.95;;;;;;;13.45;68.09;101205.06;5050913;28;20091;-69
2022/05/31 07:48:37;;;;;;;12.40;5.63;;;;;;;13.57;68.96;101207.91;5050928;28;20095;-67
2022/05/31 07:51:04;;;;;;;10.85;4.72;;;;;;;13.67;67.56;101196.78;5050803;28;20032;-69
2022/05/31 07:53:29;;;;;;;12.15;5.47;;;;;;;13.78;67.50;101198.81;5050523;28;20049;-69
2022/05/31 07:55:57;;;;;;;8.23;5.43;;;;;;;13.91;67.33;101200.66;5056448;28;20082;-69
2022/05/31 07:58:31;;;;;;;10.15;5.50;;;;;;;14.12;66.60;101191.50;5069817;28;20482;-69
2022/05/31 08:00:57;;;;;;;7.55;4.60;;;;;;;14.28;65.99;101193.75;5050490;28;20051;-69
2022/05/31 08:03:23;;;;;;;9.93;4.90;;;;;;;14.40;65.33;101191.19;5050636;28;20029;-69
2022/05/31 08:05:48;;;;;;;8.63;4.25;;;;;;;14.60;63.13;101189.28;5050384;28;20167;-70
2022/05/31 08:08:14;;;;;;;8.13;5.20;;;;;;;15.13;61.07;101194.28;5051060;28;20108;-70
2022/05/31 08:10:39;;;;;;;6.78;4.25;;;;;;;17.00;56.64;101187.69;5069414;28;20033;-70
2022/05/31 08:13:05;;;;;;;9.98;4.65;;;;;;;18.99;51.82;101187.56;5069511;28;20025;-70
2022/05/31 08:15:30;;;;;;;6.20;3.38;;;;;;;20.16;47.21;101188.50;5069410;28;20066;-69
2022/05/31 08:17:56;;;;;;;6.03;2.88;;;;;;;20.99;44.39;101178.28;5069354;28;20048;-70
2022/05/31 08:20:21;;;;;;;7.65;4.60;;;;;;;21.70;42.23;101185.34;5069328;28;20066;-70
2022/05/31 08:22:48;;;;;;;5.32;3.25;;;;;;;22.28;41.68;101183.44;5069392;28;20037;-71
2022/05/31 08:25:14;;;;;;;4.32;3.40;;;;;;;22.97;40.60;101181.41;5069412;28;20377;-70
2022/05/31 08:27:40;;;;;;;10.18;3.75;;;;;;;23.73;38.84;101179.72;5069361;28;20046;-70
2022/05/31 08:30:07;;;;;;;7.57;3.35;;;;;;;24.45;37.91;101181.06;5069455;28;20468;-70
2022/05/31 08:32:34;;;;;;;7.53;4.00;;;;;;;25.25;35.39;101179.94;5069324;28;20037;-72
2022/05/31 08:35:00;;;;;;;9.30;4.20;;;;;;;25.61;34.62;101167.84;5069127;28;20102;-70
2022/05/31 08:37:25;;;;;;;4.90;3.53;;;;;;;26.39;33.28;101170.16;5050855;28;20380;-69
2022/05/31 08:39:51;;;;;;;7.22;3.40;;;;;;;26.66;32.17;101164.03;5068877;28;20037;-70
2022/05/31 08:42:22;;;;;;;5.90;3.55;;;;;;;27.24;33.49;101159.28;5051088;28;20032;-69
2022/05/31 08:44:53;;;;;;;4.40;2.80;;;;;;;27.92;31.90;101163.19;5069139;28;20040;-70
2022/05/31 08:47:38;;;;;;;5.82;4.00;;;;;;;27.70;34.16;101158.41;5068540;28;20027;-69
2022/05/31 08:53:26;;;;;;;7.18;3.28;;;;;;;28.25;33.80;101157.56;5052567;28;20139;-70
2022/05/31 08:58:57;;;;;;;7.60;3.75;;;;;;;29.04;28.31;101151.56;5068345;28;20059;-70
2022/05/31 09:01:28;;;;;;;;;;;;;;;28.27;30.56;101153.41;5069276;28;20203;-70
2022/05/31 09:04:19;;;;;;;6.68;3.10;;;;;;;25.06;35.22;101157.16;5069164;28;19908;-70
2022/05/31 09:07:00;;;;;;;7.03;3.20;;;;;;;23.18;36.68;101163.97;5049156;28;20115;-70
2022/05/31 09:09:31;;;;;;;4.97;3.05;;;;;;;21.70;37.91;101163.59;5049603;28;20025;-69
2022/05/31 09:12:04;;;;;;;5.63;3.58;;;;;;;20.64;41.26;101177.94;5049672;28;20071;-64
2022/05/31 09:14:41;;;;;;;5.97;3.05;;;;;;;19.74;42.82;101174.69;5049506;28;20358;-64
2022/05/31 09:17:32;;;;;;;8.98;3.95;;;;;;;19.15;44.50;101172.41;5049507;28;20647;-65
2022/05/31 09:20:05;;;;;;;8.32;3.90;;;;;;;18.87;46.67;101170.63;5049536;28;20032;-64
2022/05/31 09:22:31;;;;;;;9.10;3.38;;;;;;;18.60;48.02;101165.78;5049534;28;20106;-65
2022/05/31 09:24:56;;;;;;;5.90;3.60;;;;;;;18.44;48.35;101163.84;5031779;28;20057;-64
2022/05/31 09:27:40;;;;;;;6.70;4.18;;;;;;;18.34;48.94;101151.81;5049485;28;20574;-64
2022/05/31 09:30:10;;;;;;;13.70;4.25;;;;;;;18.14;48.97;101157.63;5049512;28;20088;-64
2022/05/31 09:32:50;;;;;;;5.78;3.72;;;;;;;18.06;49.36;101160.72;5049391;28;20033;-64
2022/05/31 09:35:18;;;;;;;8.05;4.15;;;;;;;17.85;49.83;101158.66;5049511;28;20091;-64
2022/05/31 09:37:46;;;;;;;7.20;3.88;;;;;;;17.87;52.13;101164.63;5049050;28;20100;-64
2022/05/31 09:40:45;;;;;;;6.90;3.85;;;;;;;17.95;50.29;101167.78;5049265;28;20033;-64
2022/05/31 09:43:46;;;;;;;4.80;3.65;;;;;;;18.01;49.71;101165.19;5049195;28;20009;-64
2022/05/31 09:46:11;;;;;;;7.65;3.97;;;;;;;17.86;49.44;101171.88;5017650;28;20087;-65
2022/05/31 09:48:48;;;;;;;8.13;4.33;;;;;;;17.81;49.28;101168.25;5049100;28;20452;-64
2022/05/31 09:51:38;;;;;;;8.27;4.22;;;;;;;17.87;51.10;101165.44;5067423;28;20274;-65
2022/05/31 09:57:06;;;;;;;9.02;5.20;;;;;;;17.95;47.80;101166.97;5068496;28;20510;-65
2022/05/31 09:59:43;;;;;;;6.90;3.50;;;;;;;17.86;49.54;101163.78;5070316;28;20036;-65
2022/05/31 10:02:56;;;;;;;8.13;4.05;;;;;;;18.02;50.66;101164.13;5052182;28;20873;-65
2022/05/31 10:05:21;;;;;;;8.43;3.90;;;;;;;18.08;48.43;101155.06;4954594;28;20042;-65
2022/05/31 10:07:48;;;;;;;8.27;4.00;;;;;;;18.18;47.84;101158.81;5024138;28;20037;-65
2022/05/31 10:10:28;;;;;;;6.78;3.65;;;;;;;18.28;47.69;101151.94;5052818;28;20028;-65
2022/05/31 10:13:00;;;;;;;7.70;4.25;;;;;;;18.27;47.04;101145.72;5052549;28;20028;-65
2022/05/31 10:15:34;;;;;;;6.38;4.22;;;;;;;18.32;47.38;101145.00;5052712;28;20041;-65
2022/05/31 10:18:04;;;;;;;5.97;4.00;;;;;;;18.41;48.54;101154.34;5051827;28;20039;-65
2022/05/31 10:20:31;;;;;;;7.88;4.35;;;;;;;18.48;49.29;101154.22;5034444;28;20385;-65
2022/05/31 10:23:06;;;;;;;6.50;3.47;;;;;;;18.52;48.44;101144.56;5052065;28;20106;-65
2022/05/31 10:25:49;;;;;;;8.05;4.68;;;;;;;18.56;47.40;101148.44;5052338;28;20039;-65
2022/05/31 10:28:29;;;;;;;8.43;3.85;;;;;;;18.65;49.36;101149.66;5052279;28;20021;-65
2022/05/31 10:31:33;;;;;;;6.10;4.05;;;;;;;18.81;49.92;101151.63;5052421;28;20036;-65
2022/05/31 10:34:01;;;;;;;7.35;4.32;;;;;;;18.80;45.65;101141.84;5055745;28;20027;-64
2022/05/31 10:36:33;;;;;;;5.82;3.92;;;;;;;18.83;46.31;101144.06;5059221;28;20051;-66
2022/05/31 10:39:10;;;;;;;7.10;3.90;;;;;;;18.87;45.86;101154.41;5057023;28;20075;-66
2022/05/31 10:41:39;;;;;;;10.10;4.65;;;;;;;18.91;46.26;101140.13;5059227;28;20492;-65
2022/05/31 10:44:40;;;;;;;7.13;4.15;;;;;;;19.15;46.40;101143.53;5058448;28;20911;-66
2022/05/31 10:47:12;;;;;;;9.40;4.72;;;;;;;19.26;45.15;101141.78;5011265;28;20058;-65
2022/05/31 10:49:38;;;;;;;6.65;4.07;;;;;;;19.34;45.65;101132.44;5058884;28;20494;-65
2022/05/31 10:52:07;;;;;;;6.53;4.60;;;;;;;19.34;43.33;101130.56;5066372;28;20056;-65
2022/05/31 10:54:41;;;;;;;8.02;4.80;;;;;;;19.34;45.68;101132.44;5071135;28;20718;-65
2022/05/31 10:57:16;;;;;;;9.15;4.30;;;;;;;19.10;44.50;101135.31;5070901;28;20107;-66
2022/05/31 11:00:02;;;;;;;8.48;4.82;;;;;;;18.98;44.96;101134.59;5070958;28;20114;-65
2022/05/31 11:02:52;;;;;;;5.88;3.97;;;;;;;18.76;46.05;101129.09;5070132;28;20040;-65
2022/05/31 11:05:23;;;;;;;7.32;3.78;;;;;;;18.58;47.29;101124.69;5070909;28;20115;-65
2022/05/31 11:11:37;;;;;;;7.72;5.07;;;;;;;18.31;47.29;101119.06;5069186;28;20063;-66
2022/05/31 11:14:07;;;;;;;11.77;5.07;;;;;;;18.20;46.26;101126.16;5069002;28;20067;-65
2022/05/31 11:17:00;;;;;;;8.73;4.55;;;;;;;18.50;47.74;101123.22;5070210;28;20575;-66
2022/05/31 11:20:04;;;;;;;6.38;3.88;;;;;;;18.53;46.80;101130.00;5070413;28;20025;-65
2022/05/31 11:22:48;;;;;;;8.45;4.00;;;;;;;18.34;48.17;101129.41;5070723;28;20082;-65
2022/05/31 11:25:54;;;;;;;9.52;4.70;;;;;;;18.14;48.78;101124.41;5070504;28;20025;-65
2022/05/31 11:28:46;;;;;;;9.77;4.57;;;;;;;18.14;48.95;101133.31;5016871;28;20099;-66
2022/05/31 11:31:46;;;;;;;9.48;5.03;;;;;;;18.17;49.26;101137.44;5051352;28;20039;-65
2022/05/31 11:34:29;;;;;;;7.88;4.30;;;;;;;18.12;48.13;101138.13;5051258;28;20438;-65
2022/05/31 11:37:27;;;;;;;8.00;4.82;;;;;;;18.06;49.48;101133.72;5050830;28;20532;-65
2022/05/31 11:40:43;;;;;;;7.60;4.88;;;;;;;18.05;51.12;101133.94;5051189;28;20033;-65
2022/05/31 11:43:14;;;;;;;6.97;4.68;;;;;;;17.92;51.22;101132.31;4996870;28;20128;-65
2022/05/31 11:45:41;;;;;;;8.77;4.85;;;;;;;17.77;50.37;101143.59;5051024;28;20033;-65
2022/05/31 11:48:28;;;;;;;10.23;5.38;;;;;;;17.60;49.11;101143.50;5050992;28;20024;-66
2022/05/31 11:51:37;;;;;;;14.02;6.93;;;;;;;17.49;49.49;101147.03;5050792;28;20063;-65
2022/05/31 11:54:18;;;;;;;9.05;4.85;;;;;;;17.33;49.34;101140.47;5060585;28;20080;-65
2022/05/31 11:57:05;;;;;;;10.30;4.97;;;;;;;17.30;51.77;101138.25;5069854;28;20020;-65
2022/05/31 11:59:53;;;;;;;11.13;5.47;;;;;;;17.25;49.24;101147.03;5069691;28;20086;-65
2022/05/31 12:02:37;;;;;;;7.13;4.60;;;;;;;17.19;49.99;101147.16;5069809;28;20032;-65
2022/05/31 12:05:20;;;;;;;9.45;5.25;;;;;;;17.09;50.06;101140.47;5068632;28;20032;-65